Guntersville Observed Data For Previous 48 Hours

Caption
Day and Hour Reservoir Elevation (behind dam)* Tailwater Elevation (below dam)* Average Hourly Discharge*
1/17/2018 1 AM CST 593.73 554.64 24,063
1/17/2018 2 AM CST 593.72 554.41 24,042
1/17/2018 3 AM CST 593.74 554.23 24,080
1/17/2018 4 AM CST 593.72 554.13 23,976
1/17/2018 5 AM CST 593.53 554.91 25,212
1/17/2018 6 AM CST 593.61 555.85 44,465
1/17/2018 7 AM CST 593.60 556.06 44,507
1/17/2018 8 AM CST 593.63 556.26 44,533
1/17/2018 9 AM CST 593.65 556.39 44,624
1/17/2018 10 AM CST 593.64 556.49 44,524
1/17/2018 11 AM CST 593.85 555.78 43,452
1/17/2018 12 PM CST 593.77 554.87 24,049
1/17/2018 1 PM CST 593.78 554.59 24,096
1/17/2018 2 PM CST 593.81 554.31 24,170
1/17/2018 3 PM CST 593.82 554.14 24,335
1/17/2018 4 PM CST 593.85 554.04 24,003
1/17/2018 5 PM CST 593.71 554.82 25,230
1/17/2018 6 PM CST 593.79 555.74 44,354
1/17/2018 7 PM CST 593.78 555.98 44,459
1/17/2018 8 PM CST 593.81 556.15 44,523
1/17/2018 9 PM CST 593.81 556.27 44,406
1/17/2018 10 PM CST 593.80 556.34 44,461
1/17/2018 11 PM CST 593.94 554.90 24,584
1/18/2018 12 AM CST 593.72 555.29 25,524
1/18/2018 1 AM CST 593.82 556.01 44,635
1/18/2018 2 AM CST 593.85 556.12 44,240
1/18/2018 3 AM CST 593.81 556.22 44,333
1/18/2018 4 AM CST 593.82 556.28 44,366
1/18/2018 5 AM CST 593.80 556.31 44,417
1/18/2018 6 AM CST 593.77 556.35 44,389
1/18/2018 7 AM CST 593.74 556.39 44,478
1/18/2018 8 AM CST 593.70 556.39 44,415
1/18/2018 9 AM CST 593.66 556.40 44,219
1/18/2018 10 AM CST 593.66 556.41 44,121
1/18/2018 11 AM CST 593.81 554.85 34,569
1/18/2018 12 PM CST 593.81 554.58 23,818
1/18/2018 1 PM CST 593.82 554.24 24,055
1/18/2018 2 PM CST 593.81 554.02 24,026
1/18/2018 3 PM CST 593.81 554.01 23,942
1/18/2018 4 PM CST 593.78 553.76 24,154
1/18/2018 5 PM CST 593.79 553.67 24,044
1/18/2018 6 PM CST 593.62 554.48 25,334
1/18/2018 7 PM CST 593.61 555.43 44,013
1/18/2018 8 PM CST 593.58 555.65 44,163
1/18/2018 9 PM CST 593.57 555.85 44,261
1/18/2018 10 PM CST 593.71 554.23 24,581
1/18/2018 11 PM CST 593.69 554.03 24,197

Elevations are in feet above sea level. Discharges are in cubic feet per second and are reported at the end of the hour.